createdAt,value
2016-11-07T00:00:24.093Z,91.89
2016-11-07T00:01:24.111Z,91.8
2016-11-07T00:02:24.128Z,91.8
2016-11-07T00:03:24.135Z,91.71
2016-11-07T00:04:24.150Z,91.61
2016-11-07T00:05:24.163Z,91.71
2016-11-07T00:06:24.183Z,91.8
2016-11-07T00:07:24.195Z,91.99
2016-11-07T00:08:24.210Z,92.18
2016-11-07T00:09:24.216Z,92.28
2016-11-07T00:10:24.240Z,92.28
2016-11-07T00:11:24.251Z,92.28
2016-11-07T00:12:24.272Z,92.47
2016-11-07T00:13:24.285Z,92.47
2016-11-07T00:14:24.304Z,92.28
2016-11-07T00:15:24.315Z,92.28
2016-11-07T00:16:24.328Z,92.37
2016-11-07T00:17:24.348Z,92.37
2016-11-07T00:18:24.358Z,92.66
2016-11-07T00:19:24.368Z,92.66
2016-11-07T00:20:24.382Z,92.66
2016-11-07T00:21:24.398Z,92.75
2016-11-07T00:22:24.412Z,92.85
2016-11-07T00:23:24.429Z,92.9
2016-11-07T00:24:24.440Z,92.99
2016-11-07T00:25:24.454Z,93.18
2016-11-07T00:26:24.475Z,93.27
2016-11-07T00:27:24.484Z,93.46
2016-11-07T00:28:24.503Z,93.56
2016-11-07T00:29:24.514Z,93.46
2016-11-07T00:30:24.532Z,93.56
2016-11-07T00:31:24.542Z,93.65
2016-11-07T00:32:24.555Z,93.75
2016-11-07T00:33:24.579Z,93.84
2016-11-07T00:34:24.585Z,93.94
2016-11-07T00:35:24.605Z,94.03
2016-11-07T00:36:24.612Z,94.13
2016-11-07T00:37:24.626Z,94.23
2016-11-07T00:38:24.649Z,94.32
2016-11-07T00:39:24.662Z,94.32
2016-11-07T00:40:24.679Z,94.23
2016-11-07T00:41:24.686Z,94.13
2016-11-07T00:42:24.706Z,94.42
2016-11-07T00:43:24.719Z,94.42
2016-11-07T00:44:24.724Z,94.51
2016-11-07T00:45:24.742Z,94.6
2016-11-07T00:46:24.760Z,94.7
2016-11-07T00:47:24.775Z,94.79
2016-11-07T00:48:24.798Z,94.79
2016-11-07T00:49:24.807Z,94.89
2016-11-07T00:50:24.820Z,94.89
2016-11-07T00:51:24.828Z,95.17
2016-11-07T00:52:24.846Z,95.36
2016-11-07T00:53:24.857Z,95.46
2016-11-07T00:54:24.876Z,95.55
2016-11-07T00:55:24.887Z,95.65
2016-11-07T00:56:24.916Z,95.65
2016-11-07T00:57:24.923Z,95.46
2016-11-07T00:58:24.939Z,95.46
2016-11-07T00:59:24.949Z,95.55
2016-11-07T01:00:24.967Z,95.65
2016-11-07T01:01:24.975Z,95.84
2016-11-07T01:02:24.998Z,95.84
2016-11-07T01:03:25.006Z,95.93
2016-11-07T01:04:25.023Z,95.93
2016-11-07T01:05:25.042Z,96.03
2016-11-07T01:06:25.051Z,96.22
2016-11-07T01:07:25.062Z,96.31
2016-11-07T01:08:25.083Z,96.41
2016-11-07T01:09:25.105Z,96.59
2016-11-07T01:10:25.109Z,96.5
2016-11-07T01:11:25.121Z,96.41
2016-11-07T01:12:25.136Z,96.41
2016-11-07T01:13:25.151Z,96.5
2016-11-07T01:14:25.165Z,96.5
2016-11-07T01:15:25.180Z,96.69
2016-11-07T01:16:25.191Z,96.78
2016-11-07T01:17:25.215Z,96.97
2016-11-07T01:18:25.228Z,97.07
2016-11-07T01:19:25.234Z,97.26
2016-11-07T01:20:25.254Z,97.55
2016-11-07T01:21:25.269Z,97.74
2016-11-07T01:22:25.285Z,97.83
2016-11-07T01:23:25.300Z,98.02
2016-11-07T01:24:25.314Z,97.92
2016-11-07T01:25:25.320Z,97.92
2016-11-07T01:26:25.342Z,97.64
2016-11-07T01:27:25.356Z,97.55
2016-11-07T01:28:25.370Z,97.55
2016-11-07T01:29:25.385Z,97.64
2016-11-07T01:30:25.439Z,97.64
2016-11-07T01:31:25.415Z,98.02
2016-11-07T01:32:25.431Z,98.4
2016-11-07T01:33:25.445Z,98.49
2016-11-07T01:34:25.459Z,98.4
2016-11-07T01:35:25.467Z,98.4
2016-11-07T01:36:25.482Z,98.49
2016-11-07T01:37:25.505Z,98.49
2016-11-07T01:38:25.523Z,98.49
2016-11-07T01:39:25.525Z,98.59
2016-11-07T01:40:25.550Z,98.68
2016-11-07T01:41:25.570Z,98.78
2016-11-07T01:42:25.576Z,98.78
2016-11-07T01:43:25.594Z,98.87
2016-11-07T01:44:25.607Z,98.97
2016-11-07T01:45:25.619Z,98.97
2016-11-07T01:46:25.632Z,99.26
2016-11-07T01:47:25.648Z,99.35
2016-11-07T01:48:25.657Z,99.54
2016-11-07T01:49:25.682Z,99.73
2016-11-07T01:50:25.692Z,99.99
2016-11-07T01:51:25.707Z,99.99
2016-11-07T01:52:25.726Z,99.99
2016-11-07T01:53:25.735Z,99.99
2016-11-07T01:54:25.746Z,99.99
2016-11-07T01:55:25.762Z,99.99
2016-11-07T01:56:25.774Z,99.99
2016-11-07T01:57:25.795Z,99.99
2016-11-07T01:58:25.804Z,99.99
2016-11-07T01:59:25.822Z,99.99
2016-11-07T02:00:25.838Z,99.99
2016-11-07T02:01:25.876Z,99.99
2016-11-07T02:02:25.871Z,99.99
2016-11-07T02:03:25.883Z,99.99
2016-11-07T02:04:25.889Z,99.99
2016-11-07T02:05:25.911Z,99.99
2016-11-07T02:06:25.923Z,99.99
2016-11-07T02:07:25.931Z,99.99
2016-11-07T02:08:25.949Z,99.99
2016-11-07T02:09:25.963Z,99.99
2016-11-07T02:10:25.975Z,99.99
2016-11-07T02:11:25.994Z,99.99
2016-11-07T02:12:26.009Z,99.99
2016-11-07T02:13:26.026Z,99.99
2016-11-07T02:14:26.039Z,99.99
2016-11-07T02:15:26.060Z,99.99
2016-11-07T02:16:26.068Z,99.99
2016-11-07T02:17:26.078Z,99.99
2016-11-07T02:18:26.102Z,99.99
2016-11-07T02:19:26.106Z,99.99
2016-11-07T02:20:26.130Z,99.99
2016-11-07T02:21:26.142Z,99.99
2016-11-07T02:22:26.149Z,99.99
2016-11-07T02:23:26.172Z,99.99
2016-11-07T02:24:26.186Z,99.99
2016-11-07T02:25:26.196Z,99.99
2016-11-07T02:26:26.291Z,99.99
2016-11-07T02:27:26.230Z,99.99
2016-11-07T02:28:26.242Z,99.99
2016-11-07T02:29:26.256Z,99.99
2016-11-07T02:30:26.267Z,99.99
2016-11-07T02:31:26.286Z,99.99
2016-11-07T02:32:26.293Z,99.99
2016-11-07T02:33:26.315Z,99.99
2016-11-07T02:34:26.332Z,99.99
2016-11-07T02:35:26.378Z,99.99
2016-11-07T02:36:26.363Z,99.99
2016-11-07T02:37:26.370Z,99.99
2016-11-07T02:38:26.391Z,99.99
2016-11-07T02:39:26.405Z,99.99
2016-11-07T02:40:26.419Z,99.99
2016-11-07T02:41:26.461Z,99.99
2016-11-07T02:42:26.480Z,99.99
2016-11-07T02:43:26.494Z,99.99
2016-11-07T02:44:26.472Z,99.99
2016-11-07T02:45:26.488Z,99.99
2016-11-07T02:46:26.503Z,99.99
2016-11-07T02:47:26.518Z,99.99
2016-11-07T02:48:26.533Z,99.99
2016-11-07T02:49:26.543Z,99.99
2016-11-07T02:50:26.562Z,99.99
2016-11-07T02:51:26.578Z,99.99
2016-11-07T02:52:26.592Z,99.99
2016-11-07T02:53:26.608Z,99.99
2016-11-07T02:54:26.611Z,99.99
2016-11-07T02:55:26.630Z,99.99
2016-11-07T02:56:26.652Z,99.99
2016-11-07T02:57:26.663Z,99.99
2016-11-07T02:58:26.677Z,99.99
2016-11-07T02:59:26.689Z,99.99
2016-11-07T03:00:26.705Z,99.99
2016-11-07T03:01:26.720Z,99.99
2016-11-07T03:02:26.738Z,99.99
2016-11-07T03:03:26.751Z,99.99
2016-11-07T03:04:26.764Z,99.99
2016-11-07T03:05:26.775Z,99.99
2016-11-07T03:06:26.795Z,99.99
2016-11-07T03:07:26.805Z,99.99
2016-11-07T03:08:26.826Z,99.99
2016-11-07T03:09:26.839Z,99.99
2016-11-07T03:10:26.844Z,99.99
2016-11-07T03:11:26.896Z,99.99
2016-11-07T03:12:26.880Z,99.99
2016-11-07T03:13:26.892Z,99.99
2016-11-07T03:14:26.909Z,99.99
2016-11-07T03:15:26.923Z,99.99
2016-11-07T03:16:26.932Z,99.99
2016-11-07T03:17:26.954Z,99.99
2016-11-07T03:18:26.962Z,99.99
2016-11-07T03:19:26.974Z,99.99
2016-11-07T03:20:26.998Z,99.99
2016-11-07T03:21:27.044Z,99.99
2016-11-07T03:22:27.028Z,99.99
2016-11-07T03:23:27.047Z,99.99
2016-11-07T03:24:27.052Z,99.99
2016-11-07T03:25:27.109Z,99.99
2016-11-07T03:26:27.078Z,99.99
2016-11-07T03:27:27.095Z,99.99
2016-11-07T03:28:27.116Z,99.99
2016-11-07T03:29:27.122Z,99.99
2016-11-07T03:30:27.135Z,99.99
2016-11-07T03:31:27.181Z,99.99
2016-11-07T03:32:27.168Z,99.99
2016-11-07T03:33:27.182Z,99.99
2016-11-07T03:34:27.205Z,99.99
2016-11-07T03:35:27.210Z,99.99
2016-11-07T03:36:27.220Z,99.99
2016-11-07T03:37:27.237Z,99.99
2016-11-07T03:38:27.257Z,99.99
2016-11-07T03:39:27.273Z,99.99
2016-11-07T03:40:27.285Z,99.99
2016-11-07T03:41:27.293Z,99.99
2016-11-07T03:42:27.314Z,99.99
2016-11-07T03:43:27.321Z,99.99
2016-11-07T03:44:27.346Z,99.99
2016-11-07T03:45:27.357Z,99.99
2016-11-07T03:46:27.378Z,99.99
2016-11-07T03:47:27.380Z,99.99
2016-11-07T03:48:27.394Z,99.99
2016-11-07T03:49:27.412Z,99.99
2016-11-07T03:50:27.428Z,99.99
2016-11-07T03:51:27.440Z,99.99
2016-11-07T03:52:27.450Z,99.99
2016-11-07T03:53:27.466Z,99.99
2016-11-07T03:54:27.489Z,99.99
2016-11-07T03:55:27.496Z,99.99
2016-11-07T03:56:27.512Z,99.99
2016-11-07T03:57:27.528Z,99.99
2016-11-07T03:58:27.537Z,99.99
2016-11-07T03:59:27.559Z,99.99
2016-11-07T04:01:42.429Z,99.99
2016-11-07T04:02:27.602Z,99.99
2016-11-07T04:03:27.615Z,99.99
2016-11-07T04:04:27.627Z,99.99
2016-11-07T04:05:27.648Z,99.99
2016-11-07T04:06:27.654Z,99.99
2016-11-07T04:07:27.670Z,99.99
2016-11-07T04:08:27.684Z,99.99
2016-11-07T04:09:27.706Z,99.99
2016-11-07T04:10:27.723Z,99.99
2016-11-07T04:11:27.726Z,99.99
2016-11-07T04:12:27.779Z,99.99
2016-11-07T04:13:27.760Z,99.99
2016-11-07T04:14:27.769Z,99.99
2016-11-07T04:15:27.794Z,99.99
2016-11-07T04:16:27.800Z,99.99
2016-11-07T04:17:27.872Z,99.99
2016-11-07T04:18:27.833Z,99.99
2016-11-07T04:19:27.848Z,99.99
2016-11-07T04:20:27.863Z,99.99
2016-11-07T04:21:27.872Z,99.99
2016-11-07T04:22:27.892Z,99.99
2016-11-07T04:23:27.903Z,99.99
2016-11-07T04:24:27.913Z,99.99
2016-11-07T04:25:27.931Z,99.99
2016-11-07T04:26:27.947Z,99.99
2016-11-07T04:27:27.960Z,99.99
2016-11-07T04:28:27.979Z,99.99
2016-11-07T04:29:27.990Z,99.99
2016-11-07T04:30:28.008Z,99.99
2016-11-07T04:31:28.019Z,99.99
2016-11-07T04:32:28.032Z,99.99
2016-11-07T04:33:28.044Z,99.99
2016-11-07T04:34:28.060Z,99.99
2016-11-07T04:35:28.079Z,99.99
2016-11-07T04:36:28.089Z,99.99
2016-11-07T04:37:28.103Z,99.99
2016-11-07T04:38:28.123Z,99.99
2016-11-07T04:39:28.143Z,99.99
2016-11-07T04:40:28.156Z,99.99
2016-11-07T04:41:28.163Z,99.99
2016-11-07T04:42:28.174Z,99.99
2016-11-07T04:43:28.193Z,99.99
2016-11-07T04:44:28.206Z,99.99
2016-11-07T04:45:28.222Z,99.99
2016-11-07T04:46:28.235Z,99.99
2016-11-07T04:47:28.246Z,99.99
2016-11-07T04:48:28.261Z,99.99
2016-11-07T04:49:28.278Z,99.99
2016-11-07T04:50:28.288Z,99.99
2016-11-07T04:51:28.305Z,99.99
2016-11-07T04:52:28.323Z,99.99
2016-11-07T04:53:28.339Z,99.99
2016-11-07T04:54:28.352Z,99.99
2016-11-07T04:55:28.368Z,99.99
2016-11-07T04:56:28.377Z,99.99
2016-11-07T04:57:28.391Z,99.99
2016-11-07T04:58:28.403Z,99.99
2016-11-07T04:59:28.425Z,99.99
2016-11-07T05:00:28.437Z,99.99
2016-11-07T05:01:28.458Z,99.99
2016-11-07T05:02:28.459Z,99.99
2016-11-07T05:03:28.484Z,99.99
2016-11-07T05:04:28.497Z,99.99
2016-11-07T05:05:28.511Z,99.99
2016-11-07T05:06:28.520Z,99.99
2016-11-07T05:07:28.542Z,99.99
2016-11-07T05:08:28.553Z,99.99
2016-11-07T05:09:28.570Z,99.99
2016-11-07T05:10:28.587Z,99.99
2016-11-07T05:11:28.602Z,99.99
2016-11-07T05:12:28.611Z,99.99
2016-11-07T05:13:28.630Z,99.99
2016-11-07T05:14:28.642Z,99.99
2016-11-07T05:15:28.650Z,99.99
2016-11-07T05:16:28.666Z,99.99
2016-11-07T05:17:28.681Z,99.99
2016-11-07T05:18:28.702Z,99.99
2016-11-07T05:19:28.715Z,99.99
2016-11-07T05:20:28.728Z,99.99
2016-11-07T05:21:28.735Z,99.99
2016-11-07T05:22:28.757Z,99.99
2016-11-07T05:23:28.768Z,99.99
2016-11-07T05:24:28.788Z,99.99
2016-11-07T05:25:28.793Z,99.99
2016-11-07T05:26:28.813Z,99.99
2016-11-07T05:27:28.827Z,99.99
2016-11-07T05:28:28.839Z,99.99
2016-11-07T05:29:28.851Z,99.99
2016-11-07T05:30:28.901Z,99.99
2016-11-07T05:31:28.879Z,99.99
2016-11-07T05:32:28.902Z,99.99
2016-11-07T05:33:28.915Z,99.99
2016-11-07T05:34:28.926Z,99.99
2016-11-07T05:35:28.944Z,99.99
2016-11-07T05:36:28.956Z,99.99
2016-11-07T05:37:28.973Z,99.99
2016-11-07T05:38:28.985Z,99.99
2016-11-07T05:39:28.999Z,99.99
2016-11-07T05:40:29.011Z,99.99
2016-11-07T05:41:29.032Z,99.99
2016-11-07T05:42:29.042Z,99.99
2016-11-07T05:43:29.057Z,99.99
2016-11-07T05:44:29.068Z,99.99
2016-11-07T05:45:29.089Z,99.99
2016-11-07T05:46:29.093Z,99.99
2016-11-07T05:47:29.115Z,99.99
2016-11-07T05:48:29.126Z,99.99
2016-11-07T05:49:29.144Z,99.99
2016-11-07T05:50:29.157Z,99.99
2016-11-07T05:51:29.173Z,99.99
2016-11-07T05:52:29.189Z,99.99
2016-11-07T05:53:29.202Z,99.99
2016-11-07T05:54:29.213Z,99.99
2016-11-07T05:55:29.227Z,99.99
2016-11-07T05:56:29.239Z,99.99
2016-11-07T05:57:29.257Z,99.99
2016-11-07T05:58:29.267Z,99.99
2016-11-07T05:59:29.288Z,99.99
2016-11-07T06:00:29.301Z,99.99
2016-11-07T06:01:29.316Z,99.99
2016-11-07T06:02:29.334Z,99.99
2016-11-07T06:03:29.340Z,99.99
2016-11-07T06:04:29.355Z,99.99
2016-11-07T06:05:29.376Z,99.99
2016-11-07T06:06:29.393Z,99.99
2016-11-07T06:07:29.403Z,99.99
2016-11-07T06:08:29.415Z,99.99
2016-11-07T06:09:29.428Z,99.99
2016-11-07T06:10:29.449Z,99.99
2016-11-07T06:11:29.458Z,99.99
2016-11-07T06:12:29.478Z,99.99
2016-11-07T06:13:29.492Z,99.99
2016-11-07T06:14:29.503Z,99.99
2016-11-07T06:15:29.521Z,99.99
2016-11-07T06:16:29.527Z,99.99
2016-11-07T06:17:29.552Z,99.99
2016-11-07T06:18:29.560Z,99.99
2016-11-07T06:19:29.578Z,99.99
2016-11-07T06:20:29.589Z,99.99
2016-11-07T06:21:29.604Z,99.99
2016-11-07T06:22:29.620Z,99.99
2016-11-07T06:23:29.632Z,99.99
2016-11-07T06:24:29.685Z,99.99
2016-11-07T06:25:29.664Z,99.99
2016-11-07T06:26:29.674Z,99.99
2016-11-07T06:27:29.690Z,99.99
2016-11-07T06:28:29.707Z,99.99
2016-11-07T06:29:29.719Z,99.99
2016-11-07T06:30:29.738Z,99.99
2016-11-07T06:31:29.752Z,99.99
2016-11-07T06:32:29.762Z,99.99
2016-11-07T06:33:29.776Z,99.99
2016-11-07T06:34:29.791Z,99.99
2016-11-07T06:35:29.806Z,99.99
2016-11-07T06:36:29.818Z,99.99
2016-11-07T06:37:29.846Z,99.99
2016-11-07T06:38:29.857Z,99.99
2016-11-07T06:39:29.866Z,99.99
2016-11-07T06:40:29.875Z,99.99
2016-11-07T06:41:29.890Z,99.99
2016-11-07T06:42:29.903Z,99.99
2016-11-07T06:43:29.920Z,99.99
2016-11-07T06:44:29.941Z,99.99
2016-11-07T06:45:29.946Z,99.99
2016-11-07T06:46:29.970Z,99.99
2016-11-07T06:47:29.981Z,99.99
2016-11-07T06:48:29.990Z,99.99
2016-11-07T06:49:30.039Z,99.99
2016-11-07T06:50:30.025Z,99.99
2016-11-07T06:51:30.029Z,99.99
2016-11-07T06:52:30.045Z,99.99
2016-11-07T06:53:30.068Z,99.99
2016-11-07T06:54:30.079Z,99.99
2016-11-07T06:55:30.093Z,99.99
2016-11-07T06:56:30.109Z,99.99
2016-11-07T06:57:30.118Z,99.99
2016-11-07T06:58:30.141Z,99.99
2016-11-07T06:59:30.153Z,99.99
2016-11-07T07:00:30.162Z,99.99
2016-11-07T07:01:30.182Z,99.99
2016-11-07T07:02:30.190Z,99.99
2016-11-07T07:03:30.211Z,99.99
2016-11-07T07:04:30.252Z,99.99
2016-11-07T07:05:30.240Z,99.99
2016-11-07T07:06:30.250Z,99.99
2016-11-07T07:07:30.268Z,99.99
2016-11-07T07:08:30.281Z,99.99
2016-11-07T07:09:30.294Z,99.99
2016-11-07T07:10:30.308Z,99.99
2016-11-07T07:11:30.320Z,99.99
2016-11-07T07:12:30.338Z,99.99
2016-11-07T07:13:30.362Z,99.99
2016-11-07T07:14:30.365Z,99.99
2016-11-07T07:15:30.386Z,99.99
2016-11-07T07:16:30.400Z,99.99
2016-11-07T07:17:30.411Z,99.99
2016-11-07T07:18:30.428Z,99.99
2016-11-07T07:19:30.431Z,99.99
2016-11-07T07:20:30.448Z,99.99
2016-11-07T07:21:30.468Z,99.99
2016-11-07T07:22:30.482Z,99.99
2016-11-07T07:23:30.495Z,99.99
2016-11-07T07:24:30.514Z,99.99
2016-11-07T07:25:30.533Z,99.99
2016-11-07T07:26:30.539Z,99.99
2016-11-07T07:27:30.552Z,99.99
2016-11-07T07:28:30.568Z,99.99
2016-11-07T07:29:30.580Z,99.99
2016-11-07T07:30:30.598Z,99.99
2016-11-07T07:31:30.607Z,99.99
2016-11-07T07:32:30.634Z,99.99
2016-11-07T07:33:30.637Z,99.99
2016-11-07T07:34:30.650Z,99.99
2016-11-07T07:35:30.672Z,99.99
2016-11-07T07:36:30.681Z,99.99
2016-11-07T07:37:30.698Z,99.99
2016-11-07T07:38:30.713Z,99.99
2016-11-07T07:39:30.725Z,99.99
2016-11-07T07:40:30.741Z,99.99
2016-11-07T07:41:30.756Z,99.99
2016-11-07T07:42:30.771Z,99.99
2016-11-07T07:43:30.781Z,99.99
2016-11-07T07:44:30.798Z,99.99
2016-11-07T07:45:30.818Z,99.99
2016-11-07T07:46:30.825Z,99.99
2016-11-07T07:47:30.842Z,99.99
2016-11-07T07:48:30.863Z,99.99
2016-11-07T07:49:30.868Z,99.99
2016-11-07T07:50:30.889Z,99.99
2016-11-07T07:51:30.906Z,99.99
2016-11-07T07:52:30.915Z,99.99
2016-11-07T07:53:30.930Z,99.99
2016-11-07T07:54:30.945Z,99.99
2016-11-07T07:55:30.962Z,99.99
2016-11-07T07:56:30.975Z,99.99
2016-11-07T07:57:30.984Z,99.99
2016-11-07T07:58:31.005Z,99.99
2016-11-07T07:59:31.052Z,99.99
2016-11-07T08:00:31.029Z,99.99
2016-11-07T08:01:31.044Z,99.99
2016-11-07T08:02:31.061Z,99.99
2016-11-07T08:03:31.069Z,99.99
2016-11-07T08:04:31.083Z,99.99
2016-11-07T08:05:31.104Z,99.99
2016-11-07T08:06:31.112Z,99.99
2016-11-07T08:07:31.135Z,99.99
2016-11-07T08:08:31.138Z,99.99
2016-11-07T08:09:31.159Z,99.99
2016-11-07T08:10:31.178Z,99.99
2016-11-07T08:11:31.184Z,99.99
2016-11-07T08:12:31.196Z,99.99
2016-11-07T08:13:31.217Z,99.99
2016-11-07T08:14:31.228Z,99.99
2016-11-07T08:15:31.251Z,99.99
2016-11-07T08:16:31.265Z,99.99
2016-11-07T08:17:31.270Z,99.99
2016-11-07T08:18:31.292Z,99.99
2016-11-07T08:19:31.305Z,99.99
2016-11-07T08:20:31.321Z,99.99
2016-11-07T08:21:31.332Z,99.99
2016-11-07T08:22:31.350Z,99.99
2016-11-07T08:23:31.367Z,99.99
2016-11-07T08:24:31.377Z,99.99
2016-11-07T08:25:31.389Z,99.99
2016-11-07T08:26:31.407Z,99.99
2016-11-07T08:27:31.430Z,99.99
2016-11-07T08:28:31.432Z,99.99
2016-11-07T08:29:31.447Z,99.99
2016-11-07T08:30:31.468Z,99.99
2016-11-07T08:31:31.478Z,99.99
2016-11-07T08:32:31.495Z,99.99
2016-11-07T08:33:31.510Z,99.99
2016-11-07T08:34:31.520Z,99.99
2016-11-07T08:35:31.533Z,99.99
2016-11-07T08:36:31.558Z,99.99
2016-11-07T08:37:31.568Z,99.99
2016-11-07T08:38:31.575Z,99.99
2016-11-07T08:39:31.588Z,99.99
2016-11-07T08:40:31.613Z,99.99
2016-11-07T08:41:31.623Z,99.99
2016-11-07T08:42:31.638Z,99.99
2016-11-07T08:43:31.648Z,99.99
2016-11-07T08:44:31.671Z,99.99
2016-11-07T08:45:31.683Z,99.99
2016-11-07T08:46:31.695Z,99.99
2016-11-07T08:47:31.711Z,99.99
2016-11-07T08:48:31.721Z,99.99
2016-11-07T08:49:31.743Z,99.99
2016-11-07T08:50:31.756Z,99.99
2016-11-07T08:51:31.774Z,99.99
2016-11-07T08:52:31.783Z,99.99
2016-11-07T08:53:31.804Z,99.99
2016-11-07T08:54:31.817Z,99.99
2016-11-07T08:55:31.833Z,99.87
2016-11-07T08:56:31.848Z,99.87
2016-11-07T08:57:31.857Z,99.97
2016-11-07T08:58:31.873Z,99.87
2016-11-07T08:59:31.896Z,99.68
2016-11-07T09:00:31.904Z,99.58
2016-11-07T09:01:31.920Z,99.68
2016-11-07T09:02:31.930Z,99.77
2016-11-07T09:03:31.949Z,99.87
2016-11-07T09:04:31.966Z,99.97
2016-11-07T09:05:31.976Z,99.99
2016-11-07T09:06:31.987Z,99.99
2016-11-07T09:07:31.998Z,99.77
2016-11-07T09:08:32.021Z,99.68
2016-11-07T09:09:32.034Z,99.68
2016-11-07T09:10:32.045Z,99.87
2016-11-07T09:11:32.069Z,99.99
2016-11-07T09:12:32.080Z,99.99
2016-11-07T09:13:32.096Z,99.99
2016-11-07T09:14:32.109Z,99.99
2016-11-07T09:15:32.130Z,99.68
2016-11-07T09:16:32.137Z,99.58
2016-11-07T09:17:32.274Z,99.68
2016-11-07T09:18:32.165Z,99.97
2016-11-07T09:19:32.193Z,99.97
2016-11-07T09:20:32.196Z,99.99
2016-11-07T09:21:32.218Z,99.97
2016-11-07T09:22:32.221Z,99.99
2016-11-07T09:23:32.249Z,99.97
2016-11-07T09:24:32.258Z,99.68
2016-11-07T09:25:32.268Z,99.49
2016-11-07T09:26:32.280Z,99.58
2016-11-07T09:27:32.298Z,99.58
2016-11-07T09:28:32.307Z,99.58
2016-11-07T09:29:32.331Z,99.4
2016-11-07T09:30:32.344Z,99.3
2016-11-07T09:31:32.354Z,99.21
2016-11-07T09:32:32.372Z,99.21
2016-11-07T09:33:32.383Z,99.11
2016-11-07T09:34:32.400Z,99.02
2016-11-07T09:35:32.426Z,98.92
2016-11-07T09:36:32.428Z,98.83
2016-11-07T09:37:32.455Z,98.64
2016-11-07T09:38:32.464Z,98.64
2016-11-07T09:39:32.476Z,98.64
2016-11-07T09:40:32.488Z,98.73
2016-11-07T09:41:32.505Z,98.92
2016-11-07T09:42:32.522Z,99.02
2016-11-07T09:43:32.534Z,98.83
2016-11-07T09:44:32.543Z,98.73
2016-11-07T09:45:32.569Z,98.83
2016-11-07T09:46:32.583Z,98.83
2016-11-07T09:47:32.597Z,98.64
2016-11-07T09:48:32.600Z,98.64
2016-11-07T09:49:32.669Z,98.73
2016-11-07T09:50:32.677Z,98.83
2016-11-07T09:51:32.681Z,99.02
2016-11-07T09:52:32.715Z,99.11
2016-11-07T09:53:32.689Z,98.73
2016-11-07T09:54:32.727Z,98.83
2016-11-07T09:55:32.718Z,99.21
2016-11-07T09:56:32.724Z,99.4
2016-11-07T09:57:32.745Z,99.49
2016-11-07T09:58:32.750Z,99.4
2016-11-07T09:59:32.768Z,99.49
2016-11-07T10:00:32.792Z,99.77
2016-11-07T10:01:32.809Z,99.97
2016-11-07T10:02:32.811Z,99.99
2016-11-07T10:03:32.836Z,99.97
2016-11-07T10:04:32.845Z,99.87
2016-11-07T10:05:32.858Z,99.97
2016-11-07T10:06:32.872Z,99.99
2016-11-07T10:07:32.891Z,99.99
2016-11-07T10:08:32.901Z,99.99
2016-11-07T10:09:32.950Z,99.99
2016-11-07T10:10:32.977Z,99.99
2016-11-07T10:11:32.999Z,99.99
2016-11-07T10:12:33.012Z,99.99
2016-11-07T10:13:32.977Z,99.99
2016-11-07T10:14:33.004Z,99.99
2016-11-07T10:15:33.000Z,99.99
2016-11-07T10:16:33.017Z,99.99
2016-11-07T10:17:33.033Z,99.99
2016-11-07T10:18:33.044Z,99.99
2016-11-07T10:19:33.059Z,99.99
2016-11-07T10:20:33.077Z,99.99
2016-11-07T10:21:33.105Z,99.99
2016-11-07T10:22:33.098Z,99.99
2016-11-07T10:23:33.463Z,99.99
2016-11-07T10:24:33.131Z,99.99
2016-11-07T10:25:33.145Z,99.99
2016-11-07T10:26:33.158Z,99.99
2016-11-07T10:27:33.178Z,99.99
2016-11-07T10:28:33.188Z,99.99
2016-11-07T10:29:33.240Z,99.99
2016-11-07T10:30:33.215Z,99.99
2016-11-07T10:31:33.245Z,99.99
2016-11-07T10:32:33.247Z,99.99
2016-11-07T10:33:33.273Z,99.99
2016-11-07T10:34:33.283Z,99.99
2016-11-07T10:35:33.303Z,99.99
2016-11-07T10:36:33.307Z,99.99
2016-11-07T10:37:33.336Z,99.99
2016-11-07T10:38:33.342Z,99.99
2016-11-07T10:39:33.363Z,99.99
2016-11-07T10:40:33.368Z,99.99
2016-11-07T10:41:33.391Z,99.99
2016-11-07T10:42:33.395Z,99.99
2016-11-07T10:43:33.431Z,99.99
2016-11-07T10:44:33.429Z,99.99
2016-11-07T10:45:33.451Z,99.99
2016-11-07T10:46:33.455Z,99.99
2016-11-07T10:47:33.477Z,99.99
2016-11-07T10:48:33.490Z,99.99
2016-11-07T10:49:33.508Z,99.99
2016-11-07T10:50:33.520Z,99.99
2016-11-07T10:51:33.542Z,99.99
2016-11-07T10:52:33.545Z,99.99
2016-11-07T10:53:33.573Z,99.99
2016-11-07T10:54:33.579Z,99.99
2016-11-07T10:55:33.599Z,99.99
2016-11-07T10:56:33.603Z,99.99
2016-11-07T10:57:33.947Z,99.99
2016-11-07T10:58:33.641Z,99.99
2016-11-07T10:59:33.654Z,99.99
2016-11-07T11:00:33.660Z,99.99
2016-11-07T11:01:33.692Z,99.99
2016-11-07T11:02:33.691Z,99.99
2016-11-07T11:03:33.725Z,99.99
2016-11-07T11:04:33.725Z,99.99
2016-11-07T11:05:34.077Z,99.99
2016-11-07T11:06:33.755Z,99.99
2016-11-07T11:07:33.773Z,99.99
2016-11-07T11:08:33.787Z,99.99
2016-11-07T11:09:33.792Z,99.99
2016-11-07T11:10:33.813Z,99.97
2016-11-07T11:11:33.825Z,99.99
2016-11-07T11:12:33.841Z,99.99
2016-11-07T11:13:33.931Z,99.99
2016-11-07T11:14:33.872Z,99.99
2016-11-07T11:15:33.882Z,99.99
2016-11-07T11:16:33.899Z,99.99
2016-11-07T11:17:33.929Z,99.99
2016-11-07T11:18:33.924Z,99.99
2016-11-07T11:19:33.951Z,99.99
2016-11-07T11:20:33.955Z,99.99
2016-11-07T11:21:33.977Z,99.99
2016-11-07T11:22:33.989Z,99.99
2016-11-07T11:23:34.007Z,99.99
2016-11-07T11:24:34.014Z,99.99
2016-11-07T11:25:34.034Z,99.99
2016-11-07T11:26:34.051Z,99.99
2016-11-07T11:27:34.060Z,99.99
2016-11-07T11:28:34.079Z,99.99
2016-11-07T11:29:34.096Z,99.97
2016-11-07T11:30:34.113Z,99.83
2016-11-07T11:31:34.129Z,99.64
2016-11-07T11:32:34.135Z,99.64
2016-11-07T11:33:34.146Z,99.54
2016-11-07T11:34:34.170Z,99.35
2016-11-07T11:35:34.190Z,99.35
2016-11-07T11:36:34.201Z,99.44
2016-11-07T11:37:34.213Z,99.54
2016-11-07T11:38:34.223Z,99.73
2016-11-07T11:39:34.248Z,99.73
2016-11-07T11:40:34.254Z,99.44
2016-11-07T11:41:34.280Z,99.44
2016-11-07T11:42:34.289Z,99.64
2016-11-07T11:43:34.309Z,99.73
2016-11-07T11:44:34.316Z,99.83
2016-11-07T11:45:34.333Z,99.92
2016-11-07T11:46:34.339Z,99.99
2016-11-07T11:47:34.356Z,99.99
2016-11-07T11:48:34.373Z,99.99
2016-11-07T11:49:34.396Z,99.99
2016-11-07T11:50:34.399Z,99.92
2016-11-07T11:51:34.423Z,99.83
2016-11-07T11:52:34.438Z,99.73
2016-11-07T11:53:34.462Z,99.64
2016-11-07T11:54:34.465Z,99.54
2016-11-07T11:55:34.493Z,99.16
2016-11-07T11:56:34.500Z,99.26
2016-11-07T11:57:34.510Z,99.44
2016-11-07T11:58:34.524Z,99.83
2016-11-07T11:59:34.537Z,99.92
2016-11-07T12:00:34.556Z,99.73
2016-11-07T12:01:34.574Z,99.35
2016-11-07T12:02:34.583Z,99.35
2016-11-07T12:03:34.592Z,99.44
2016-11-07T12:04:34.611Z,99.16
2016-11-07T12:05:34.629Z,99.07
2016-11-07T12:06:34.642Z,99.07
2016-11-07T12:07:34.667Z,98.88
2016-11-07T12:08:34.672Z,98.97
2016-11-07T12:09:34.690Z,99.07
2016-11-07T12:10:34.708Z,99.07
2016-11-07T12:11:34.733Z,99.35
2016-11-07T12:12:34.730Z,99.26
2016-11-07T12:13:34.750Z,99.54
2016-11-07T12:14:34.762Z,99.83
2016-11-07T12:15:34.791Z,99.99
2016-11-07T12:16:34.790Z,99.99
2016-11-07T12:17:34.808Z,99.99
2016-11-07T12:18:34.817Z,99.99
2016-11-07T12:19:34.891Z,99.99
2016-11-07T12:20:34.853Z,99.99
2016-11-07T12:21:34.871Z,99.99
2016-11-07T12:22:34.880Z,99.99
2016-11-07T12:23:34.906Z,99.99
2016-11-07T12:24:34.957Z,99.99
2016-11-07T12:25:34.924Z,99.99
2016-11-07T12:26:34.936Z,99.99
2016-11-07T12:27:35.292Z,99.99
2016-11-07T12:28:34.971Z,99.99
2016-11-07T12:29:35.009Z,99.99
2016-11-07T12:30:35.006Z,99.99
2016-11-07T12:31:35.324Z,99.99
2016-11-07T12:32:35.024Z,99.99
2016-11-07T12:33:35.044Z,99.99
2016-11-07T12:34:35.057Z,99.99
2016-11-07T12:35:35.108Z,99.99
2016-11-07T12:36:35.141Z,99.99
2016-11-07T12:37:35.137Z,99.99
2016-11-07T12:38:35.114Z,99.99
2016-11-07T12:39:35.182Z,99.99
2016-11-07T12:40:35.200Z,99.99
2016-11-07T12:41:35.157Z,99.99
2016-11-07T12:42:35.175Z,99.99
2016-11-07T12:43:35.189Z,99.99
2016-11-07T12:44:35.209Z,99.99
2016-11-07T12:45:35.224Z,99.99
2016-11-07T12:46:35.239Z,99.99
2016-11-07T12:47:35.247Z,99.99
2016-11-07T12:48:35.268Z,99.99
2016-11-07T12:49:35.283Z,99.99
2016-11-07T12:50:35.295Z,99.99
2016-11-07T12:51:35.304Z,99.99
2016-11-07T12:52:35.327Z,99.99
2016-11-07T12:53:35.334Z,99.99
2016-11-07T12:54:35.357Z,99.99